createdAt,value
2019-03-30T00:00:04.018Z,1022.83
2019-03-30T00:01:01.804Z,1022.83
2019-03-30T00:02:02.149Z,1022.84
2019-03-30T00:03:02.287Z,1022.84
2019-03-30T00:04:02.530Z,1022.84
2019-03-30T00:05:01.895Z,1022.8
2019-03-30T00:06:02.056Z,1022.8
2019-03-30T00:07:02.268Z,1022.8
2019-03-30T00:08:02.510Z,1022.8
2019-03-30T00:09:01.882Z,1022.69
2019-03-30T00:10:02.162Z,1022.69
2019-03-30T00:11:02.267Z,1022.69
2019-03-30T00:12:02.526Z,1022.69
2019-03-30T00:13:01.719Z,1022.67
2019-03-30T00:14:01.966Z,1022.67
2019-03-30T00:15:02.282Z,1022.67
2019-03-30T00:16:02.404Z,1022.67
2019-03-30T00:17:02.571Z,1022.7
2019-03-30T00:18:01.622Z,1022.7
2019-03-30T00:19:01.909Z,1022.7
2019-03-30T00:20:01.717Z,1022.7
2019-03-30T00:21:01.857Z,1022.53
2019-03-30T00:22:02.168Z,1022.53
2019-03-30T00:23:02.431Z,1022.53
2019-03-30T00:24:01.755Z,1022.53
2019-03-30T00:25:01.856Z,1022.49
2019-03-30T00:26:02.075Z,1022.49
2019-03-30T00:27:02.270Z,1022.49
2019-03-30T00:28:02.475Z,1022.49
2019-03-30T00:29:01.677Z,1022.5
2019-03-30T00:30:01.941Z,1022.5
2019-03-30T00:31:02.146Z,1022.5
2019-03-30T00:32:02.365Z,1022.5
2019-03-30T00:33:01.680Z,1022.42
2019-03-30T00:34:01.835Z,1022.42
2019-03-30T00:35:02.079Z,1022.42
2019-03-30T00:36:02.341Z,1022.42
2019-03-30T00:37:02.507Z,1022.41
2019-03-30T00:38:01.774Z,1022.41
2019-03-30T00:39:01.648Z,1022.41
2019-03-30T00:40:02.373Z,1022.41
2019-03-30T00:41:02.620Z,1022.45
2019-03-30T00:42:01.818Z,1022.45
2019-03-30T00:43:02.156Z,1022.45
2019-03-30T00:44:01.898Z,1022.45
2019-03-30T00:45:02.250Z,1022.36
2019-03-30T00:46:02.470Z,1022.36
2019-03-30T00:47:01.780Z,1022.36
2019-03-30T00:48:01.986Z,1022.36
2019-03-30T00:49:02.210Z,1022.3
2019-03-30T00:50:02.522Z,1022.3
2019-03-30T00:51:02.519Z,1022.3
2019-03-30T00:52:01.681Z,1022.3
2019-03-30T00:53:02.053Z,1022.24
2019-03-30T00:54:02.218Z,1022.24
2019-03-30T00:55:02.517Z,1022.24
2019-03-30T00:56:01.668Z,1022.24
2019-03-30T00:57:01.902Z,1022.14
2019-03-30T00:58:02.062Z,1022.14
2019-03-30T00:59:02.258Z,1022.14
2019-03-30T01:00:04.689Z,1022.14
2019-03-30T01:01:02.561Z,1022.21
2019-03-30T01:02:01.757Z,1022.21
2019-03-30T01:03:02.065Z,1022.21
2019-03-30T01:04:02.266Z,1022.21
2019-03-30T01:05:02.596Z,1022.08
2019-03-30T01:06:01.736Z,1022.08
2019-03-30T01:07:01.959Z,1022.08
2019-03-30T01:08:02.210Z,1022.08
2019-03-30T01:09:01.852Z,1021.99
2019-03-30T01:10:02.481Z,1021.99
2019-03-30T01:11:01.726Z,1021.99
2019-03-30T01:12:01.942Z,1021.99
2019-03-30T01:13:02.149Z,1021.95
2019-03-30T01:14:02.382Z,1021.95
2019-03-30T01:15:02.602Z,1021.95
2019-03-30T01:16:01.811Z,1021.95
2019-03-30T01:17:02.113Z,1021.81
2019-03-30T01:18:02.290Z,1021.81
2019-03-30T01:19:02.594Z,1021.81
2019-03-30T01:20:04.038Z,1021.81
2019-03-30T01:21:01.935Z,1021.78
2019-03-30T01:22:02.188Z,1021.78
2019-03-30T01:23:02.361Z,1021.78
2019-03-30T01:24:02.646Z,1021.78
2019-03-30T01:25:01.892Z,1021.69
2019-03-30T01:26:02.087Z,1021.69
2019-03-30T01:27:02.394Z,1021.69
2019-03-30T01:28:02.615Z,1021.69
2019-03-30T01:29:01.864Z,1021.83
2019-03-30T01:30:02.589Z,1021.83
2019-03-30T01:31:01.738Z,1021.83
2019-03-30T01:32:01.954Z,1021.83
2019-03-30T01:33:02.124Z,1021.66
2019-03-30T01:34:02.415Z,1021.66
2019-03-30T01:35:02.713Z,1021.66
2019-03-30T01:36:01.873Z,1021.66
2019-03-30T01:37:02.114Z,1021.59
2019-03-30T01:38:02.305Z,1021.59
2019-03-30T01:39:02.562Z,1021.59
2019-03-30T01:40:01.802Z,1021.59
2019-03-30T01:41:02.004Z,1021.5
2019-03-30T01:42:01.949Z,1021.5
2019-03-30T01:43:02.246Z,1021.5
2019-03-30T01:44:02.509Z,1021.58
2019-03-30T01:45:01.710Z,1021.58
2019-03-30T01:46:01.990Z,1021.58
2019-03-30T01:47:02.166Z,1021.58
2019-03-30T01:48:02.412Z,1021.49
2019-03-30T01:49:01.646Z,1021.49
2019-03-30T01:50:16.187Z,1021.49
2019-03-30T01:51:02.074Z,1021.49
2019-03-30T01:52:02.270Z,1021.43
2019-03-30T01:53:02.429Z,1021.43
2019-03-30T01:54:01.672Z,1021.43
2019-03-30T01:55:01.946Z,1021.43
2019-03-30T01:56:02.099Z,1021.34
2019-03-30T01:57:02.419Z,1021.34
2019-03-30T01:58:02.600Z,1021.34
2019-03-30T01:59:01.810Z,1021.34
2019-03-30T02:00:03.972Z,1021.31
2019-03-30T02:01:02.085Z,1021.31
2019-03-30T02:02:02.260Z,1021.31
2019-03-30T02:03:02.489Z,1021.31
2019-03-30T02:04:01.800Z,1021.31
2019-03-30T02:05:02.020Z,1021.31
2019-03-30T02:06:02.319Z,1021.31
2019-03-30T02:07:02.470Z,1021.31
2019-03-30T02:08:01.649Z,1021.18
2019-03-30T02:09:01.842Z,1021.18
2019-03-30T02:10:02.140Z,1021.18
2019-03-30T02:11:02.461Z,1021.18
2019-03-30T02:12:02.625Z,1021.16
2019-03-30T02:13:01.747Z,1021.16
2019-03-30T02:14:02.017Z,1021.16
2019-03-30T02:15:02.269Z,1021.16
2019-03-30T02:16:02.561Z,1021.16
2019-03-30T02:17:01.691Z,1021.16
2019-03-30T02:18:01.883Z,1021.16
2019-03-30T02:19:02.133Z,1021.16
2019-03-30T02:20:02.431Z,1021.09
2019-03-30T02:21:02.683Z,1021.09
2019-03-30T02:22:01.834Z,1021.09
2019-03-30T02:23:02.108Z,1021.09
2019-03-30T02:24:02.397Z,1021.08
2019-03-30T02:25:02.703Z,1021.08
2019-03-30T02:26:01.891Z,1021.08
2019-03-30T02:27:02.105Z,1021.08
2019-03-30T02:28:02.257Z,1021.15
2019-03-30T02:29:02.531Z,1021.15
2019-03-30T02:30:01.844Z,1021.15
2019-03-30T02:31:02.056Z,1021.15
2019-03-30T02:32:02.296Z,1021.08
2019-03-30T02:33:02.467Z,1021.08
2019-03-30T02:34:01.676Z,1021.08
2019-03-30T02:35:02.343Z,1021.08
2019-03-30T02:36:02.316Z,1021
2019-03-30T02:37:02.455Z,1021
2019-03-30T02:38:01.651Z,1021
2019-03-30T02:39:01.927Z,1021
2019-03-30T02:40:02.787Z,1020.95
2019-03-30T02:41:02.640Z,1020.95
2019-03-30T02:42:01.698Z,1020.95
2019-03-30T02:43:02.038Z,1020.95
2019-03-30T02:44:02.169Z,1020.84
2019-03-30T02:45:02.412Z,1020.84
2019-03-30T02:46:02.660Z,1020.84
2019-03-30T02:47:01.859Z,1020.84
2019-03-30T02:48:01.996Z,1020.96
2019-03-30T02:49:02.266Z,1020.96
2019-03-30T02:50:02.576Z,1020.96
2019-03-30T02:51:01.817Z,1020.96
2019-03-30T02:52:02.115Z,1020.96
2019-03-30T02:53:02.222Z,1020.96
2019-03-30T02:54:02.520Z,1020.96
2019-03-30T02:55:01.703Z,1020.96
2019-03-30T02:56:01.889Z,1020.85
2019-03-30T02:57:02.197Z,1020.85
2019-03-30T02:58:02.369Z,1020.85
2019-03-30T02:59:02.538Z,1020.85
2019-03-30T03:00:03.658Z,1020.88
2019-03-30T03:01:02.401Z,1020.88
2019-03-30T03:02:01.613Z,1020.88
2019-03-30T03:03:01.966Z,1020.88
2019-03-30T03:04:02.120Z,1020.76
2019-03-30T03:05:02.412Z,1020.76
2019-03-30T03:06:01.636Z,1020.76
2019-03-30T03:07:01.814Z,1020.76
2019-03-30T03:08:02.053Z,1020.68
2019-03-30T03:09:02.252Z,1020.68
2019-03-30T03:10:02.470Z,1020.68
2019-03-30T03:11:01.679Z,1020.68
2019-03-30T03:12:01.960Z,1020.77
2019-03-30T03:13:02.227Z,1020.77
2019-03-30T03:14:02.397Z,1020.77
2019-03-30T03:15:01.899Z,1020.77
2019-03-30T03:16:02.012Z,1020.76
2019-03-30T03:17:02.229Z,1020.76
2019-03-30T03:18:02.472Z,1020.76
2019-03-30T03:19:01.711Z,1020.76
2019-03-30T03:20:01.939Z,1020.59
2019-03-30T03:21:09.053Z,1020.59
2019-03-30T03:22:02.426Z,1020.59
2019-03-30T03:23:02.571Z,1020.59
2019-03-30T03:24:01.797Z,1020.71
2019-03-30T03:25:02.086Z,1020.71
2019-03-30T03:26:02.375Z,1020.71
2019-03-30T03:27:02.550Z,1020.71
2019-03-30T03:28:01.745Z,1020.71
2019-03-30T03:29:01.958Z,1020.71
2019-03-30T03:30:02.336Z,1020.71
2019-03-30T03:31:02.470Z,1020.66
2019-03-30T03:32:02.635Z,1020.66
2019-03-30T03:33:01.822Z,1020.66
2019-03-30T03:34:02.449Z,1020.66
2019-03-30T03:35:02.572Z,1020.65
2019-03-30T03:36:02.483Z,1020.65
2019-03-30T03:37:06.267Z,1020.65
2019-03-30T03:38:06.519Z,1020.65
2019-03-30T03:39:02.261Z,1020.71
2019-03-30T03:40:02.448Z,1020.71
2019-03-30T03:41:01.699Z,1020.71
2019-03-30T03:42:01.962Z,1020.71
2019-03-30T03:43:02.082Z,1020.63
2019-03-30T03:44:02.341Z,1020.63
2019-03-30T03:45:02.582Z,1020.63
2019-03-30T03:46:01.853Z,1020.63
2019-03-30T03:47:02.118Z,1020.57
2019-03-30T03:48:02.337Z,1020.57
2019-03-30T03:49:02.202Z,1020.57
2019-03-30T03:50:01.996Z,1020.57
2019-03-30T03:51:02.209Z,1020.66
2019-03-30T03:52:02.532Z,1020.66
2019-03-30T03:53:01.734Z,1020.66
2019-03-30T03:54:02.054Z,1020.66
2019-03-30T03:55:02.349Z,1020.46
2019-03-30T03:56:02.551Z,1020.46
2019-03-30T03:57:01.893Z,1020.46
2019-03-30T03:58:02.044Z,1020.46
2019-03-30T03:59:02.245Z,1020.37
2019-03-30T04:00:02.522Z,1020.37
2019-03-30T04:01:01.666Z,1020.37
2019-03-30T04:02:01.909Z,1020.37
2019-03-30T04:03:02.127Z,1020.47
2019-03-30T04:04:02.412Z,1020.47
2019-03-30T04:05:02.655Z,1020.47
2019-03-30T04:06:01.887Z,1020.47
2019-03-30T04:07:02.209Z,1020.28
2019-03-30T04:08:02.415Z,1020.28
2019-03-30T04:09:02.580Z,1020.28
2019-03-30T04:10:01.866Z,1020.28
2019-03-30T04:11:02.113Z,1020.35
2019-03-30T04:12:02.416Z,1020.35
2019-03-30T04:13:07.656Z,1020.35
2019-03-30T04:14:01.908Z,1020.35
2019-03-30T04:15:02.098Z,1020.21
2019-03-30T04:16:02.319Z,1020.21
2019-03-30T04:17:02.528Z,1020.21
2019-03-30T04:18:01.804Z,1020.21
2019-03-30T04:19:01.982Z,1020.19
2019-03-30T04:20:02.245Z,1020.19
2019-03-30T04:21:02.515Z,1020.19
2019-03-30T04:22:01.684Z,1020.19
2019-03-30T04:23:01.889Z,1020.17
2019-03-30T04:24:02.101Z,1020.17
2019-03-30T04:25:02.460Z,1020.17
2019-03-30T04:26:01.660Z,1020.17
2019-03-30T04:27:01.817Z,1020.22
2019-03-30T04:28:02.058Z,1020.22
2019-03-30T04:29:02.298Z,1020.22
2019-03-30T04:30:02.572Z,1020.22
2019-03-30T04:31:01.811Z,1020.25
2019-03-30T04:32:01.995Z,1020.25
2019-03-30T04:33:02.334Z,1020.25
2019-03-30T04:34:02.655Z,1020.25
2019-03-30T04:35:01.919Z,1020.08
2019-03-30T04:36:02.079Z,1020.08
2019-03-30T04:37:02.323Z,1020.08
2019-03-30T04:38:02.534Z,1020.08
2019-03-30T04:39:01.722Z,1020.16
2019-03-30T04:40:01.915Z,1020.16
2019-03-30T04:41:02.210Z,1020.16
2019-03-30T04:42:01.649Z,1020.16
2019-03-30T04:43:01.812Z,1020.13
2019-03-30T04:44:02.301Z,1020.13
2019-03-30T04:45:02.542Z,1020.13
2019-03-30T04:46:02.331Z,1020.13
2019-03-30T04:47:07.090Z,1020.11
2019-03-30T04:48:01.707Z,1020.11
2019-03-30T04:49:02.017Z,1020.11
2019-03-30T04:50:02.268Z,1020.11
2019-03-30T04:51:02.392Z,1020.04
2019-03-30T04:52:02.597Z,1020.04
2019-03-30T04:53:01.913Z,1020.04
2019-03-30T04:54:02.073Z,1020.04
2019-03-30T04:55:02.293Z,1020.09
2019-03-30T04:56:02.578Z,1020.09
2019-03-30T04:57:01.760Z,1020.09
2019-03-30T04:58:02.060Z,1020.09
2019-03-30T04:59:02.272Z,1019.99
2019-03-30T05:00:04.225Z,1019.99
2019-03-30T05:01:02.033Z,1019.99
2019-03-30T05:02:02.307Z,1019.99
2019-03-30T05:03:02.490Z,1020.12
2019-03-30T05:04:01.657Z,1020.12
2019-03-30T05:05:01.864Z,1020.12
2019-03-30T05:06:02.144Z,1020.04
2019-03-30T05:07:02.358Z,1020.04
2019-03-30T05:08:02.649Z,1020.04
2019-03-30T05:09:01.869Z,1020.04
2019-03-30T05:10:02.182Z,1020.01
2019-03-30T05:11:02.360Z,1020.01
2019-03-30T05:12:02.611Z,1020.01
2019-03-30T05:13:01.819Z,1020.01
2019-03-30T05:14:02.092Z,1019.99
2019-03-30T05:15:02.366Z,1019.99
2019-03-30T05:16:01.701Z,1019.99
2019-03-30T05:17:01.817Z,1019.99
2019-03-30T05:18:02.088Z,1019.87
2019-03-30T05:19:02.284Z,1019.87
2019-03-30T05:20:02.536Z,1019.87
2019-03-30T05:21:01.794Z,1019.87
2019-03-30T05:22:16.609Z,1019.96
2019-03-30T05:23:02.080Z,1019.96
2019-03-30T05:24:02.307Z,1019.96
2019-03-30T05:25:02.646Z,1019.96
2019-03-30T05:26:02.646Z,1019.87
2019-03-30T05:27:01.789Z,1019.87
2019-03-30T05:28:01.996Z,1019.87
2019-03-30T05:29:02.182Z,1019.87
2019-03-30T05:30:02.441Z,1019.92
2019-03-30T05:31:02.607Z,1019.92
2019-03-30T05:32:01.849Z,1019.92
2019-03-30T05:33:06.763Z,1019.92
2019-03-30T05:34:02.346Z,1019.98
2019-03-30T05:35:02.554Z,1019.98
2019-03-30T05:36:01.833Z,1019.98
2019-03-30T05:37:02.039Z,1019.98
2019-03-30T05:38:02.287Z,1019.9
2019-03-30T05:39:02.514Z,1019.9
2019-03-30T05:40:01.723Z,1019.9
2019-03-30T05:41:02.022Z,1019.9
2019-03-30T05:42:02.135Z,1019.9
2019-03-30T05:43:02.377Z,1019.9
2019-03-30T05:44:01.685Z,1019.9
2019-03-30T05:45:01.876Z,1019.9
2019-03-30T05:46:02.020Z,1020
2019-03-30T05:47:02.326Z,1020
2019-03-30T05:48:02.529Z,1020
2019-03-30T05:49:01.773Z,1020
2019-03-30T05:50:02.002Z,1019.9
2019-03-30T05:51:02.203Z,1019.9
2019-03-30T05:52:02.323Z,1019.9
2019-03-30T05:53:02.591Z,1019.9
2019-03-30T05:54:01.780Z,1019.96
2019-03-30T05:55:02.104Z,1019.96
2019-03-30T05:56:02.275Z,1019.96
2019-03-30T05:57:02.530Z,1019.96
2019-03-30T05:58:02.195Z,1019.9
2019-03-30T05:59:02.355Z,1019.9
2019-03-30T06:00:04.423Z,1019.9
2019-03-30T06:01:02.098Z,1019.9
2019-03-30T06:02:02.269Z,1019.89
2019-03-30T06:03:02.550Z,1019.89
2019-03-30T06:04:01.759Z,1019.89
2019-03-30T06:05:04.281Z,1019.89
2019-03-30T06:06:02.225Z,1019.8
2019-03-30T06:07:02.395Z,1019.8
2019-03-30T06:08:01.755Z,1019.8
2019-03-30T06:09:01.927Z,1019.8
2019-03-30T06:10:02.177Z,1019.92
2019-03-30T06:11:02.404Z,1019.92
2019-03-30T06:12:02.599Z,1019.92
2019-03-30T06:13:01.901Z,1019.92
2019-03-30T06:14:02.063Z,1019.8
2019-03-30T06:15:02.381Z,1019.8
2019-03-30T06:16:01.671Z,1019.8
2019-03-30T06:17:01.838Z,1019.8
2019-03-30T06:18:02.089Z,1019.86
2019-03-30T06:19:02.380Z,1019.86
2019-03-30T06:20:02.613Z,1019.86
2019-03-30T06:21:01.805Z,1019.86
2019-03-30T06:22:02.039Z,1019.9
2019-03-30T06:23:02.367Z,1019.9
2019-03-30T06:24:02.467Z,1019.9
2019-03-30T06:25:01.694Z,1019.9
2019-03-30T06:26:01.980Z,1019.91
2019-03-30T06:27:02.174Z,1019.91
2019-03-30T06:28:02.406Z,1019.91
2019-03-30T06:29:02.503Z,1019.91
2019-03-30T06:30:01.781Z,1019.82
2019-03-30T06:31:02.451Z,1019.82
2019-03-30T06:32:01.707Z,1019.82
2019-03-30T06:33:01.981Z,1019.82
2019-03-30T06:34:02.078Z,1019.92
2019-03-30T06:35:02.356Z,1019.92
2019-03-30T06:36:02.490Z,1019.92
2019-03-30T06:37:02.259Z,1019.92
2019-03-30T06:38:02.551Z,1020.07
2019-03-30T06:39:02.598Z,1020.07
2019-03-30T06:40:02.264Z,1020.07
2019-03-30T06:41:02.245Z,1020.07
2019-03-30T06:42:02.462Z,1020.2
2019-03-30T06:43:01.721Z,1020.2
2019-03-30T06:44:01.950Z,1020.2
2019-03-30T06:45:02.039Z,1020.2
2019-03-30T06:46:02.111Z,1020.12
2019-03-30T06:47:02.316Z,1020.12
2019-03-30T06:48:02.527Z,1020.12
2019-03-30T06:49:01.749Z,1020.06
2019-03-30T06:50:02.013Z,1020.06
2019-03-30T06:51:02.283Z,1020.06
2019-03-30T06:52:02.492Z,1020.06
2019-03-30T06:53:01.713Z,1020.08
2019-03-30T06:54:01.965Z,1020.08
2019-03-30T06:55:02.123Z,1020.08
2019-03-30T06:56:02.121Z,1020.08
2019-03-30T06:57:02.237Z,1020.05
2019-03-30T06:58:02.482Z,1020.05
2019-03-30T06:59:01.660Z,1020.05
2019-03-30T07:00:03.900Z,1020.05
2019-03-30T07:01:01.760Z,1020.09
2019-03-30T07:02:01.947Z,1020.09
2019-03-30T07:03:02.259Z,1020.09
2019-03-30T07:04:02.583Z,1020.09
2019-03-30T07:05:01.691Z,1020.07
2019-03-30T07:06:01.986Z,1020.07
2019-03-30T07:07:02.171Z,1020.07
2019-03-30T07:08:02.369Z,1020.07
2019-03-30T07:09:02.698Z,1020.16
2019-03-30T07:10:01.894Z,1020.16
2019-03-30T07:11:02.025Z,1020.16
2019-03-30T07:12:02.276Z,1020.16
2019-03-30T07:13:02.434Z,1020.08
2019-03-30T07:14:01.670Z,1020.08
2019-03-30T07:15:02.005Z,1020.08
2019-03-30T07:16:02.076Z,1020.08
2019-03-30T07:17:02.247Z,1020.14
2019-03-30T07:18:02.225Z,1020.14
2019-03-30T07:19:02.463Z,1020.14
2019-03-30T07:20:02.466Z,1020.14
2019-03-30T07:21:02.616Z,1020.19
2019-03-30T07:22:01.874Z,1020.19
2019-03-30T07:23:12.844Z,1020.19
2019-03-30T07:24:07.820Z,1020.19
2019-03-30T07:25:02.508Z,1020.3
2019-03-30T07:26:01.722Z,1020.3
2019-03-30T07:27:02.052Z,1020.3
2019-03-30T07:28:02.193Z,1020.3
2019-03-30T07:29:02.378Z,1020.31
2019-03-30T07:30:02.582Z,1020.31
2019-03-30T07:31:01.797Z,1020.31
2019-03-30T07:32:02.120Z,1020.31
2019-03-30T07:33:01.825Z,1020.19
2019-03-30T07:34:02.033Z,1020.19
2019-03-30T07:35:02.276Z,1020.19
2019-03-30T07:36:02.550Z,1020.19
2019-03-30T07:37:01.830Z,1020.29
2019-03-30T07:38:02.127Z,1020.29
2019-03-30T07:39:02.243Z,1020.29
2019-03-30T07:40:02.538Z,1020.29
2019-03-30T07:41:01.969Z,1020.42
2019-03-30T07:42:01.904Z,1020.42
2019-03-30T07:43:02.167Z,1020.42
2019-03-30T07:44:02.155Z,1020.42
2019-03-30T07:45:02.406Z,1020.34
2019-03-30T07:46:01.637Z,1020.34
2019-03-30T07:47:01.884Z,1020.34
2019-03-30T07:48:02.144Z,1020.34
2019-03-30T07:49:02.357Z,1020.44
2019-03-30T07:50:02.631Z,1020.44
2019-03-30T07:51:01.880Z,1020.44
2019-03-30T07:52:02.100Z,1020.44
2019-03-30T07:53:02.381Z,1020.45
2019-03-30T07:54:02.588Z,1020.45
2019-03-30T07:55:01.899Z,1020.45
2019-03-30T07:56:09.146Z,1020.45
2019-03-30T07:57:17.396Z,1020.42
2019-03-30T07:58:02.383Z,1020.42
2019-03-30T07:59:02.308Z,1020.42
2019-03-30T08:00:03.662Z,1020.42
2019-03-30T08:01:02.573Z,1020.44
2019-03-30T08:02:01.755Z,1020.44
2019-03-30T08:03:01.990Z,1020.44
2019-03-30T08:04:02.303Z,1020.44
2019-03-30T08:05:02.577Z,1020.43
2019-03-30T08:06:01.777Z,1020.43
2019-03-30T08:07:02.075Z,1020.43
2019-03-30T08:08:02.370Z,1020.43
2019-03-30T08:09:01.646Z,1020.58
2019-03-30T08:10:01.952Z,1020.58
2019-03-30T08:11:02.129Z,1020.58
2019-03-30T08:12:02.386Z,1020.58
2019-03-30T08:13:02.555Z,1020.55
2019-03-30T08:14:01.780Z,1020.55
2019-03-30T08:15:02.038Z,1020.55
2019-03-30T08:16:02.157Z,1020.55
2019-03-30T08:17:02.508Z,1020.46
2019-03-30T08:18:01.718Z,1020.46
2019-03-30T08:19:01.878Z,1020.46
2019-03-30T08:20:02.210Z,1020.46
2019-03-30T08:21:02.355Z,1020.62
2019-03-30T08:22:02.529Z,1020.62
2019-03-30T08:23:01.843Z,1020.62
2019-03-30T08:24:02.072Z,1020.62
2019-03-30T08:25:02.347Z,1020.56
2019-03-30T08:26:02.552Z,1020.56
2019-03-30T08:27:01.887Z,1020.56
2019-03-30T08:28:02.040Z,1020.52
2019-03-30T08:29:02.260Z,1020.52
2019-03-30T08:30:02.535Z,1020.52
2019-03-30T08:31:01.757Z,1020.52
2019-03-30T08:32:02.045Z,1020.51
2019-03-30T08:33:02.243Z,1020.51
2019-03-30T08:34:02.516Z,1020.51
2019-03-30T08:35:01.797Z,1020.51
2019-03-30T08:36:01.985Z,1020.75
2019-03-30T08:37:02.277Z,1020.75
2019-03-30T08:38:02.415Z,1020.75
2019-03-30T08:39:01.673Z,1020.75
2019-03-30T08:40:01.926Z,1020.57
2019-03-30T08:41:02.072Z,1020.57
2019-03-30T08:42:02.105Z,1020.57
2019-03-30T08:43:02.323Z,1020.57
2019-03-30T08:44:02.705Z,1020.76
2019-03-30T08:45:05.030Z,1020.76
2019-03-30T08:46:02.191Z,1020.76
2019-03-30T08:47:02.482Z,1020.76
2019-03-30T08:48:02.565Z,1020.58
2019-03-30T08:49:01.768Z,1020.58
2019-03-30T08:50:02.133Z,1020.58
2019-03-30T08:51:02.306Z,1020.58
2019-03-30T08:52:02.578Z,1020.6
2019-03-30T08:53:01.839Z,1020.6
2019-03-30T08:54:01.947Z,1020.6
2019-03-30T08:55:02.246Z,1020.6
2019-03-30T08:56:02.492Z,1020.69
2019-03-30T08:57:01.716Z,1020.69
2019-03-30T08:58:01.906Z,1020.69
2019-03-30T08:59:02.165Z,1020.69
2019-03-30T09:00:06.056Z,1020.63
2019-03-30T09:01:01.897Z,1020.63
2019-03-30T09:02:02.082Z,1020.63
2019-03-30T09:03:02.223Z,1020.63
2019-03-30T09:04:02.405Z,1020.67
2019-03-30T09:05:02.591Z,1020.67
2019-03-30T09:06:01.732Z,1020.67
2019-03-30T09:07:01.836Z,1020.67
2019-03-30T09:08:01.979Z,1020.57
2019-03-30T09:09:02.316Z,1020.57
2019-03-30T09:10:02.513Z,1020.57
2019-03-30T09:11:01.657Z,1020.57
2019-03-30T09:12:01.789Z,1020.6
2019-03-30T09:13:02.037Z,1020.6
2019-03-30T09:14:02.297Z,1020.6
2019-03-30T09:15:01.749Z,1020.6
2019-03-30T09:16:02.076Z,1020.66
2019-03-30T09:17:02.373Z,1020.66
2019-03-30T09:18:02.492Z,1020.66
2019-03-30T09:19:01.700Z,1020.66
2019-03-30T09:20:02.009Z,1020.66
2019-03-30T09:21:02.212Z,1020.66
2019-03-30T09:22:02.415Z,1020.66
2019-03-30T09:23:01.646Z,1020.66
2019-03-30T09:24:10.629Z,1020.65
2019-03-30T09:25:02.129Z,1020.65
2019-03-30T09:26:02.282Z,1020.65
2019-03-30T09:27:02.422Z,1020.65
2019-03-30T09:28:01.641Z,1020.54
2019-03-30T09:29:01.814Z,1020.54
2019-03-30T09:30:02.211Z,1020.54
2019-03-30T09:31:02.322Z,1020.54
2019-03-30T09:32:15.266Z,1020.44
2019-03-30T09:33:01.655Z,1020.44
2019-03-30T09:34:01.895Z,1020.44
2019-03-30T09:35:02.215Z,1020.44
2019-03-30T09:36:02.395Z,1020.59
2019-03-30T09:37:02.620Z,1020.59
2019-03-30T09:38:01.707Z,1020.59
2019-03-30T09:39:01.904Z,1020.59
2019-03-30T09:40:02.224Z,1020.6
2019-03-30T09:41:02.165Z,1020.6
2019-03-30T09:42:02.325Z,1020.6
2019-03-30T09:43:02.538Z,1020.6
2019-03-30T09:44:01.799Z,1020.53
2019-03-30T09:45:02.014Z,1020.53
2019-03-30T09:46:02.246Z,1020.53
2019-03-30T09:47:02.338Z,1020.53
2019-03-30T09:48:02.534Z,1020.5
2019-03-30T09:49:01.732Z,1020.5
2019-03-30T09:50:03.276Z,1020.5
2019-03-30T09:51:02.308Z,1020.5
2019-03-30T09:52:02.475Z,1020.38
2019-03-30T09:53:01.705Z,1020.38
2019-03-30T09:54:01.918Z,1020.38
2019-03-30T09:55:02.018Z,1020.38
2019-03-30T09:56:02.297Z,1020.57
2019-03-30T09:57:02.165Z,1020.57
2019-03-30T09:58:02.378Z,1020.57
2019-03-30T09:59:02.485Z,1020.57
2019-03-30T10:00:04.214Z,1020.49
2019-03-30T10:01:02.088Z,1020.49
2019-03-30T10:02:02.187Z,1020.49
2019-03-30T10:03:05.817Z,1020.49
2019-03-30T10:04:02.565Z,1020.59
2019-03-30T10:05:02.022Z,1020.59
2019-03-30T10:06:02.061Z,1020.59
2019-03-30T10:07:02.164Z,1020.59
2019-03-30T10:08:02.020Z,1020.55
2019-03-30T10:09:02.293Z,1020.55
2019-03-30T10:10:02.577Z,1020.55
2019-03-30T10:11:01.720Z,1020.49
2019-03-30T10:12:01.884Z,1020.49
2019-03-30T10:13:02.100Z,1020.49
2019-03-30T10:14:02.395Z,1020.49
2019-03-30T10:15:02.600Z,1020.57
2019-03-30T10:16:01.757Z,1020.57
2019-03-30T10:17:01.967Z,1020.57
2019-03-30T10:18:02.151Z,1020.57
2019-03-30T10:19:02.431Z,1020.39
2019-03-30T10:20:05.458Z,1020.39
2019-03-30T10:21:01.848Z,1020.39
2019-03-30T10:22:02.076Z,1020.39
2019-03-30T10:23:02.203Z,1020.41
2019-03-30T10:24:02.478Z,1020.41
2019-03-30T10:25:01.707Z,1020.41
2019-03-30T10:26:01.923Z,1020.41
2019-03-30T10:27:02.201Z,1020.42
2019-03-30T10:28:02.315Z,1020.42
2019-03-30T10:29:02.557Z,1020.42
2019-03-30T10:30:01.827Z,1020.42
2019-03-30T10:31:01.951Z,1020.48
2019-03-30T10:32:02.110Z,1020.48
2019-03-30T10:33:02.376Z,1020.48
2019-03-30T10:34:02.554Z,1020.48
2019-03-30T10:35:01.755Z,1020.42
2019-03-30T10:36:02.044Z,1020.42
2019-03-30T10:37:02.218Z,1020.42
2019-03-30T10:38:02.460Z,1020.42
2019-03-30T10:39:01.673Z,1020.43
2019-03-30T10:40:01.929Z,1020.43
2019-03-30T10:41:02.150Z,1020.43
2019-03-30T10:42:02.245Z,1020.43
2019-03-30T10:43:02.469Z,1020.43
2019-03-30T10:44:01.663Z,1020.43
2019-03-30T10:45:01.892Z,1020.43
2019-03-30T10:46:02.155Z,1020.43
2019-03-30T10:47:02.366Z,1020.55
2019-03-30T10:48:02.589Z,1020.55
2019-03-30T10:49:01.763Z,1020.55
2019-03-30T10:50:02.022Z,1020.55
2019-03-30T10:51:02.267Z,1020.44
2019-03-30T10:52:02.465Z,1020.44
2019-03-30T10:53:01.747Z,1020.44
2019-03-30T10:54:01.915Z,1020.44
2019-03-30T10:55:02.150Z,1020.54
2019-03-30T10:56:02.343Z,1020.54
2019-03-30T10:57:02.599Z,1020.54
2019-03-30T10:58:01.833Z,1020.54
2019-03-30T10:59:01.909Z,1020.66
2019-03-30T11:00:05.978Z,1020.66
2019-03-30T11:01:02.014Z,1020.66
2019-03-30T11:02:02.262Z,1020.66
2019-03-30T11:03:02.465Z,1020.69
2019-03-30T11:04:01.730Z,1020.69
2019-03-30T11:05:02.053Z,1020.69
2019-03-30T11:06:02.250Z,1020.69
2019-03-30T11:07:02.533Z,1020.64
2019-03-30T11:08:01.677Z,1020.64
2019-03-30T11:09:01.846Z,1020.64
2019-03-30T11:10:02.080Z,1020.64
2019-03-30T11:11:01.818Z,1020.76
2019-03-30T11:12:02.001Z,1020.76
2019-03-30T11:13:02.202Z,1020.76
2019-03-30T11:14:02.420Z,1020.76
2019-03-30T11:15:01.770Z,1020.71
2019-03-30T11:16:01.867Z,1020.71
2019-03-30T11:17:02.113Z,1020.71
2019-03-30T11:18:02.353Z,1020.71
2019-03-30T11:19:02.528Z,1020.66
2019-03-30T11:20:01.847Z,1020.66
2019-03-30T11:21:02.080Z,1020.66
2019-03-30T11:22:03.848Z,1020.66
2019-03-30T11:23:02.462Z,1020.62
2019-03-30T11:24:01.795Z,1020.62
2019-03-30T11:25:09.264Z,1020.62
2019-03-30T11:26:02.157Z,1020.62
2019-03-30T11:27:02.075Z,1020.65
2019-03-30T11:28:02.312Z,1020.65
2019-03-30T11:29:02.422Z,1020.65
2019-03-30T11:30:01.769Z,1020.65
2019-03-30T11:31:05.746Z,1020.74
2019-03-30T11:32:02.131Z,1020.74
2019-03-30T11:33:02.338Z,1020.74
2019-03-30T11:34:02.509Z,1020.74
2019-03-30T11:35:01.785Z,1020.78
2019-03-30T11:36:01.998Z,1020.78
2019-03-30T11:37:02.569Z,1020.78
2019-03-30T11:38:02.581Z,1020.78
2019-03-30T11:39:02.124Z,1020.68
2019-03-30T11:40:02.403Z,1020.68
2019-03-30T11:41:02.551Z,1020.68
2019-03-30T11:42:01.701Z,1020.68
2019-03-30T11:43:02.019Z,1020.69
2019-03-30T11:44:02.169Z,1020.69
2019-03-30T11:45:02.155Z,1020.69
2019-03-30T11:46:02.337Z,1020.69
2019-03-30T11:47:01.579Z,1020.59
2019-03-30T11:48:01.868Z,1020.59
2019-03-30T11:49:02.535Z,1020.59
2019-03-30T11:50:01.777Z,1020.59
2019-03-30T11:51:01.897Z,1020.63
2019-03-30T11:52:02.098Z,1020.63
2019-03-30T11:53:02.371Z,1020.63
2019-03-30T11:54:02.496Z,1020.72
2019-03-30T11:55:01.735Z,1020.72
2019-03-30T11:56:01.949Z,1020.72
2019-03-30T11:57:02.221Z,1020.72
2019-03-30T11:58:02.416Z,1020.64
2019-03-30T11:59:02.503Z,1020.64
2019-03-30T12:00:05.542Z,1020.64
2019-03-30T12:01:02.360Z,1020.64
2019-03-30T12:02:02.519Z,1020.58
2019-03-30T12:03:01.796Z,1020.58
2019-03-30T12:04:01.912Z,1020.58
2019-03-30T12:05:02.384Z,1020.58
2019-03-30T12:06:02.448Z,1020.54
2019-03-30T12:07:01.673Z,1020.54
2019-03-30T12:08:01.989Z,1020.54